Time;durP1;ratioP1;P1;durP2;ratioP2;P2;SDS_P1;SDS_P2;PMS_P1;PMS_P2;Temp;Humidity;BMP_temperature;BMP_pressure;BME280_temperature;BME280_humidity;BME280_pressure;Samples;Min_cycle;Max_cycle;Signal;HPM_P1;HPM_P2
2024/02/17 07:00:47;;;;;;;25.00;14.55;;;;;;;8.65;100.00;97731.47;2084142;27;20558;-75
2024/02/17 07:01:49;;;;;;;24.88;14.68;;;;;;;8.96;100.00;97741.28;2078657;28;20293;-75
2024/02/17 07:02:51;;;;;;;24.55;14.45;;;;;;;9.08;100.00;97741.91;2077461;28;20252;-75
2024/02/17 07:07:43;;;;;;;19.10;11.93;;;;;;;10.03;99.68;97748.41;2082991;28;20562;-75
2024/02/17 07:08:48;;;;;;;18.95;12.70;;;;;;;10.13;98.61;97749.91;2084996;28;20205;-75
2024/02/17 07:09:50;;;;;;;20.75;14.40;;;;;;;10.16;99.09;97742.00;2087148;28;20537;-75
2024/02/17 07:10:51;;;;;;;24.00;13.20;;;;;;;10.34;98.81;97747.66;2078282;28;20740;-75
2024/02/17 07:15:31;;;;;;;17.55;11.27;;;;;;;10.92;94.29;97756.53;2107809;27;20556;-74
2024/02/17 07:16:32;;;;;;;18.33;10.60;;;;;;;10.86;94.92;97746.25;2100189;27;20245;-75
2024/02/17 07:17:39;;;;;;;17.00;10.70;;;;;;;10.85;94.67;97756.75;2091165;28;20195;-75
2024/02/17 08:02:50;;;;;;;21.58;12.90;;;;;;;9.05;100.00;97836.59;2075191;28;20574;-74
2024/02/17 08:06:35;;;;;;;23.95;13.70;;;;;;;9.25;100.00;97848.41;2082789;28;20584;-72
2024/02/17 08:07:37;;;;;;;28.90;14.68;;;;;;;9.34;100.00;97836.94;2075190;28;20267;-73
2024/02/17 08:08:38;;;;;;;22.58;12.82;;;;;;;9.32;100.00;97843.03;2074838;28;20197;-73
2024/02/17 08:09:41;;;;;;;27.65;13.75;;;;;;;9.54;100.00;97850.41;2074695;28;20213;-73
2024/02/17 08:10:43;;;;;;;22.20;13.23;;;;;;;9.71;100.00;97854.41;2081157;28;20255;-73
2024/02/17 08:11:50;;;;;;;22.42;12.90;;;;;;;10.10;100.00;97854.38;2078282;28;20221;-73
2024/02/17 08:12:52;;;;;;;26.58;14.00;;;;;;;10.24;99.75;97857.50;2073837;28;20685;-72
2024/02/17 08:13:53;;;;;;;24.30;12.50;;;;;;;10.04;100.00;97854.53;2076533;28;20248;-72
2024/02/17 08:14:56;;;;;;;21.35;12.43;;;;;;;10.11;100.00;97864.78;2073797;28;20615;-72
2024/02/17 08:15:57;;;;;;;26.45;13.35;;;;;;;10.37;100.00;97862.47;2074399;28;20195;-72
2024/02/17 08:16:59;;;;;;;20.88;11.88;;;;;;;10.78;99.13;97853.59;2073121;28;20910;-72
2024/02/17 08:18:01;;;;;;;18.63;11.75;;;;;;;10.78;97.41;97855.38;2072925;28;20681;-72
2024/02/17 08:19:03;;;;;;;22.50;11.75;;;;;;;10.74;96.23;97864.16;2073421;28;20207;-72
2024/02/17 08:20:05;;;;;;;16.80;10.40;;;;;;;10.84;94.88;97863.00;2073637;28;20649;-72
2024/02/17 08:21:07;;;;;;;20.00;12.23;;;;;;;11.41;93.37;97858.00;2074182;28;20204;-72
2024/02/17 08:22:09;;;;;;;17.30;10.95;;;;;;;11.24;93.07;97866.31;2073015;28;20225;-72
2024/02/17 08:23:11;;;;;;;18.33;11.38;;;;;;;11.22;93.64;97865.50;2073127;28;20296;-72
2024/02/17 08:24:12;;;;;;;16.85;10.23;;;;;;;11.12;92.93;97870.13;2081916;28;20208;-72
2024/02/17 08:27:56;;;;;;;27.23;15.82;;;;;;;10.54;95.13;97859.44;2082974;28;21263;-78
2024/02/17 08:28:58;;;;;;;16.65;11.10;;;;;;;10.52;95.45;97880.38;2079185;28;20197;-77
2024/02/17 08:30:00;;;;;;;26.02;15.93;;;;;;;10.71;94.49;97874.69;2082010;28;20193;-74
2024/02/17 08:31:02;;;;;;;37.30;20.80;;;;;;;10.85;93.39;97874.34;2084150;28;20785;-76
2024/02/17 08:32:03;;;;;;;25.08;14.05;;;;;;;10.85;94.13;97872.56;2075066;28;20223;-77
2024/02/17 08:33:05;;;;;;;20.48;11.65;;;;;;;10.83;93.10;97876.13;2071719;28;20221;-73
2024/02/17 08:34:07;;;;;;;17.42;10.77;;;;;;;11.01;92.24;97877.38;2069579;28;20193;-74
2024/02/17 08:35:10;;;;;;;17.60;10.32;;;;;;;11.23;92.21;97885.53;2072105;28;20837;-75
2024/02/17 08:36:12;;;;;;;18.13;9.90;;;;;;;12.12;89.45;97878.63;2070766;28;20229;-75
2024/02/17 08:37:14;;;;;;;17.25;11.07;;;;;;;12.95;85.95;97873.28;2061955;28;20320;-75
2024/02/17 08:38:17;;;;;;;14.60;9.10;;;;;;;13.70;83.76;97876.75;2062497;28;20201;-75
2024/02/17 08:39:18;;;;;;;12.60;7.63;;;;;;;14.63;80.05;97886.22;2062868;28;20199;-75
2024/02/17 08:40:20;;;;;;;14.07;8.77;;;;;;;15.01;77.71;97871.47;2062863;28;20198;-76
2024/02/17 08:41:22;;;;;;;14.07;8.15;;;;;;;14.87;78.35;97879.13;2059406;28;20837;-75
2024/02/17 08:42:25;;;;;;;18.75;10.25;;;;;;;14.95;76.48;97876.16;2062052;28;20311;-76
2024/02/17 08:43:26;;;;;;;13.38;7.65;;;;;;;15.75;73.75;97880.50;2060616;28;20594;-75
2024/02/17 08:44:27;;;;;;;11.00;8.00;;;;;;;14.60;77.80;97881.97;2063597;28;20558;-76
2024/02/17 08:45:29;;;;;;;15.43;7.80;;;;;;;14.16;79.31;97881.97;2062322;28;20198;-72
2024/02/17 08:46:31;;;;;;;13.95;7.93;;;;;;;13.88;79.61;97883.91;2061469;28;20202;-77
2024/02/17 08:47:32;;;;;;;14.02;7.55;;;;;;;13.46;80.71;97886.34;2062080;28;20264;-76
2024/02/17 08:48:34;;;;;;;17.55;7.90;;;;;;;13.02;81.59;97872.13;2061751;28;20701;-76
2024/02/17 08:49:35;;;;;;;14.55;8.20;;;;;;;12.28;83.97;97889.44;2063166;28;20206;-76
2024/02/17 08:50:37;;;;;;;17.50;9.25;;;;;;;11.89;86.13;97883.59;2064923;28;20705;-76
2024/02/17 08:51:39;;;;;;;15.60;9.30;;;;;;;11.86;86.56;97877.59;2065130;28;20640;-76
2024/02/17 08:52:40;;;;;;;13.20;8.55;;;;;;;11.66;88.06;97889.53;2069260;28;20198;-74
2024/02/17 08:53:42;;;;;;;19.00;9.00;;;;;;;11.58;90.03;97894.16;2070940;28;20229;-76
2024/02/17 08:58:27;;;;;;;14.93;10.15;;;;;;;10.83;91.38;97881.34;2085094;28;21249;-76
2024/02/17 08:59:29;;;;;;;16.38;9.57;;;;;;;10.75;92.45;97885.03;2081802;28;20283;-76
2024/02/17 09:03:27;;;;;;;17.15;10.60;;;;;;;10.72;93.48;97905.16;2115782;27;20578;-74
2024/02/17 09:04:29;;;;;;;18.48;10.82;;;;;;;10.78;93.16;97912.84;2115947;28;20201;-76
2024/02/17 09:05:30;;;;;;;15.80;9.43;;;;;;;10.89;92.55;97891.66;2115461;28;20225;-76
2024/02/17 09:06:32;;;;;;;17.77;9.95;;;;;;;11.39;91.45;97910.34;2111787;28;20541;-76
2024/02/17 09:07:33;;;;;;;14.80;10.32;;;;;;;11.55;89.65;97907.28;2102115;28;20582;-76
2024/02/17 09:08:35;;;;;;;18.17;9.63;;;;;;;11.18;90.23;97903.94;2102972;28;20199;-76
2024/02/17 09:09:36;;;;;;;16.02;9.73;;;;;;;11.30;89.79;97913.22;2102458;28;20207;-76
2024/02/17 09:10:38;;;;;;;18.85;10.07;;;;;;;11.48;89.60;97904.00;2102806;28;20282;-76
2024/02/17 09:11:40;;;;;;;13.68;9.48;;;;;;;11.67;88.49;97909.56;2110723;28;20222;-76
2024/02/17 09:12:42;;;;;;;19.77;10.13;;;;;;;11.56;88.91;97906.41;2102815;28;20183;-76
2024/02/17 09:13:47;;;;;;;19.83;10.63;;;;;;;11.61;88.44;97914.97;2094788;28;20192;-76
2024/02/17 09:14:48;;;;;;;16.77;10.75;;;;;;;11.51;87.67;97889.97;2093749;28;20536;-75
2024/02/17 09:15:50;;;;;;;21.42;11.20;;;;;;;11.73;88.14;97911.13;2100961;28;20292;-75
2024/02/17 09:16:51;;;;;;;26.20;14.18;;;;;;;12.03;87.60;97908.56;2107060;28;20786;-65
2024/02/17 09:17:53;;;;;;;19.70;13.55;;;;;;;12.84;83.89;97912.94;2110586;28;20684;-64
2024/02/17 09:18:55;;;;;;;50.15;23.63;;;;;;;13.54;81.60;97910.56;2110453;28;20198;-65
2024/02/17 09:19:57;;;;;;;17.67;8.85;;;;;;;13.33;80.66;97915.66;2107952;28;20210;-66
2024/02/17 09:20:58;;;;;;;19.80;8.57;;;;;;;13.15;81.52;97911.88;2111025;28;20254;-63
2024/02/17 09:22:00;;;;;;;19.42;8.90;;;;;;;14.43;77.33;97916.78;2106379;28;20306;-63
2024/02/17 09:23:04;;;;;;;13.30;7.63;;;;;;;15.40;74.52;97919.81;2110185;28;20202;-63
2024/02/17 09:24:09;;;;;;;11.55;7.43;;;;;;;16.59;70.96;97921.41;2112447;28;20896;-63
2024/02/17 09:25:11;;;;;;;16.30;7.10;;;;;;;15.68;71.55;97926.50;2109234;28;20230;-63
2024/02/17 09:26:16;;;;;;;14.27;7.35;;;;;;;16.53;69.74;97929.63;2109178;28;20207;-62
2024/02/17 09:27:18;;;;;;;10.65;6.60;;;;;;;17.19;68.76;97928.16;2108773;28;20314;-63
2024/02/17 09:28:20;;;;;;;10.70;6.30;;;;;;;18.26;64.60;97932.16;2111155;28;20648;-65
2024/02/17 09:29:25;;;;;;;12.88;6.57;;;;;;;18.67;63.42;97936.06;2108651;28;20286;-63
2024/02/17 09:30:32;;;;;;;9.25;5.85;;;;;;;18.63;63.48;97934.53;2109054;28;20230;-63
2024/02/17 09:31:34;;;;;;;12.70;7.03;;;;;;;17.73;64.91;97926.19;2103521;28;20210;-62
2024/02/17 09:32:36;;;;;;;12.88;5.65;;;;;;;18.86;62.97;97930.56;2106058;28;20684;-63
2024/02/17 09:33:38;;;;;;;11.27;5.57;;;;;;;19.82;59.82;97939.91;2109015;28;20191;-63
2024/02/17 09:34:40;;;;;;;14.13;5.95;;;;;;;19.84;59.74;97944.22;2112457;28;20199;-63
2024/02/17 09:35:45;;;;;;;10.15;5.90;;;;;;;19.84;58.90;97940.72;2105956;28;20194;-63
2024/02/17 09:36:47;;;;;;;10.25;5.70;;;;;;;20.16;58.26;97946.69;2102116;28;20250;-63
2024/02/17 09:37:49;;;;;;;10.60;5.60;;;;;;;19.32;60.01;97942.91;2102453;28;20199;-63
2024/02/17 09:38:52;;;;;;;11.88;6.35;;;;;;;18.91;60.35;97940.91;2108604;28;20198;-63
2024/02/17 09:39:54;;;;;;;10.10;5.60;;;;;;;18.80;60.86;97946.78;2109731;28;20195;-63
2024/02/17 09:40:55;;;;;;;13.57;5.75;;;;;;;18.86;59.99;97957.03;2107760;28;20267;-63
2024/02/17 09:41:57;;;;;;;13.32;6.20;;;;;;;18.99;59.89;97945.75;2096633;28;20223;-64
2024/02/17 09:42:59;;;;;;;11.00;5.75;;;;;;;18.71;61.34;97940.22;2114152;28;20260;-64
2024/02/17 09:44:00;;;;;;;8.40;5.57;;;;;;;17.73;62.79;97952.59;2113645;28;20199;-64
2024/02/17 09:45:02;;;;;;;9.98;5.35;;;;;;;16.90;64.91;97938.34;2108989;28;20199;-63
2024/02/17 09:46:05;;;;;;;11.40;5.68;;;;;;;17.43;64.20;97955.94;2109324;28;20248;-63
2024/02/17 09:47:07;;;;;;;12.32;6.05;;;;;;;18.49;62.22;97960.94;2109888;28;20584;-64
2024/02/17 09:48:10;;;;;;;8.32;5.95;;;;;;;18.05;61.97;97957.13;2110386;28;20198;-64
2024/02/17 09:49:14;;;;;;;6.43;4.90;;;;;;;18.35;62.96;97962.53;2110715;28;20198;-64
2024/02/17 09:50:18;;;;;;;10.25;5.00;;;;;;;18.01;61.75;97968.81;2108229;28;20194;-64
2024/02/17 09:51:22;;;;;;;10.30;4.68;;;;;;;17.41;64.06;97963.06;2109601;28;20278;-64
2024/02/17 09:52:24;;;;;;;8.70;4.95;;;;;;;16.98;66.01;97967.88;2110071;28;20278;-64
2024/02/17 09:53:28;;;;;;;12.52;5.85;;;;;;;15.94;68.43;97974.53;2111362;28;20251;-64
2024/02/17 09:54:30;;;;;;;10.90;5.63;;;;;;;15.91;70.10;97972.88;2111234;28;20198;-64
2024/02/17 09:55:36;;;;;;;11.50;6.40;;;;;;;15.87;70.89;97976.59;2099912;28;20406;-64
2024/02/17 09:56:38;;;;;;;14.65;5.88;;;;;;;15.16;71.07;97974.31;2106192;28;20191;-63
2024/02/17 09:57:39;;;;;;;11.88;6.32;;;;;;;15.18;72.45;97981.28;2108764;28;20746;-67
2024/02/17 09:58:54;;;;;;;17.45;6.05;;;;;;;14.93;71.83;97978.81;2109380;28;20220;-63
2024/02/17 09:59:56;;;;;;;12.13;5.45;;;;;;;15.17;72.37;97983.94;2110168;28;20205;-63
2024/02/17 10:00:57;;;;;;;10.75;5.65;;;;;;;15.18;70.93;97985.66;2111381;28;20203;-63
2024/02/17 10:01:59;;;;;;;11.25;5.53;;;;;;;15.37;70.12;97980.47;2108248;28;20276;-64
2024/02/17 10:03:02;;;;;;;10.23;6.47;;;;;;;15.60;69.45;97983.88;2109770;28;20604;-63
2024/02/17 10:04:06;;;;;;;14.52;6.63;;;;;;;15.41;70.04;97974.16;2110423;28;20194;-63
2024/02/17 10:05:09;;;;;;;13.15;6.65;;;;;;;15.71;69.29;97984.28;2108679;28;20190;-63
2024/02/17 10:06:12;;;;;;;12.52;5.45;;;;;;;15.51;69.68;97967.59;2110362;28;20210;-63
2024/02/17 10:07:14;;;;;;;20.10;6.28;;;;;;;15.05;69.60;97972.16;2107387;28;20218;-63
2024/02/17 10:08:15;;;;;;;9.82;5.55;;;;;;;14.42;70.57;97988.66;2109536;28;20581;-64
2024/02/17 10:09:19;;;;;;;12.77;6.63;;;;;;;14.81;71.09;97985.41;2109562;28;20645;-63
2024/02/17 10:10:22;;;;;;;10.90;6.63;;;;;;;14.66;73.07;97994.75;2107523;28;20209;-63
2024/02/17 10:11:24;;;;;;;8.13;5.30;;;;;;;15.27;70.67;97997.56;2108581;28;20821;-73
2024/02/17 10:12:25;;;;;;;13.63;5.13;;;;;;;15.17;70.34;97979.56;2108712;28;20198;-74
2024/02/17 10:13:27;;;;;;;10.20;5.03;;;;;;;14.79;70.18;97982.00;2108092;28;20251;-74
2024/02/17 10:14:29;;;;;;;11.05;4.68;;;;;;;15.06;70.89;97981.78;2106979;28;20211;-74
2024/02/17 10:15:32;;;;;;;7.10;3.97;;;;;;;15.56;69.21;97995.47;2104885;28;20198;-73
2024/02/17 10:16:33;;;;;;;11.32;5.25;;;;;;;17.31;64.71;97982.97;2103872;28;20236;-74
2024/02/17 10:17:35;;;;;;;8.63;4.95;;;;;;;17.63;63.70;97988.38;2105041;28;20194;-74
2024/02/17 10:18:41;;;;;;;8.02;4.80;;;;;;;17.87;61.73;97983.56;2105162;28;20202;-77
2024/02/17 10:19:42;;;;;;;11.20;4.28;;;;;;;18.70;58.28;97994.09;2105018;28;20195;-75
2024/02/17 10:20:45;;;;;;;8.07;4.10;;;;;;;18.12;58.72;97995.53;2113224;28;20226;-74
2024/02/17 10:21:47;;;;;;;62.80;36.47;;;;;;;18.67;59.34;97990.78;2111066;28;20218;-70
2024/02/17 10:22:49;;;;;;;42.50;28.33;;;;;;;18.85;58.31;97992.34;2104796;28;20199;-75
2024/02/17 10:23:51;;;;;;;20.00;9.57;;;;;;;19.60;56.84;97996.88;2102231;28;20207;-72
2024/02/17 10:24:58;;;;;;;15.10;8.18;;;;;;;19.13;58.00;97998.75;2102092;28;20242;-73
2024/02/17 10:26:00;;;;;;;7.78;4.38;;;;;;;19.25;56.67;97989.25;2103608;28;20325;-72
2024/02/17 10:27:02;;;;;;;11.27;4.40;;;;;;;18.66;57.27;97997.00;2111496;28;20256;-72
2024/02/17 10:28:05;;;;;;;10.93;4.18;;;;;;;18.57;57.69;98004.50;2112671;28;20190;-73
2024/02/17 10:29:15;;;;;;;11.75;4.90;;;;;;;17.81;61.12;97997.09;2109032;28;20658;-73
2024/02/17 10:30:19;;;;;;;9.02;4.35;;;;;;;17.35;60.40;97994.22;2109342;28;20285;-73
2024/02/17 10:31:22;;;;;;;9.32;4.35;;;;;;;16.80;62.73;98002.13;2112626;28;20259;-73
2024/02/17 10:32:24;;;;;;;9.40;4.22;;;;;;;16.89;63.94;97984.16;2103115;28;20219;-72
2024/02/17 10:33:25;;;;;;;10.55;4.60;;;;;;;17.15;62.82;98001.34;2104771;28;20195;-72
2024/02/17 10:34:27;;;;;;;10.27;4.38;;;;;;;17.07;63.21;98000.88;2103746;28;20199;-72
2024/02/17 10:35:29;;;;;;;17.48;4.30;;;;;;;17.68;62.02;97993.41;2104687;28;20207;-73
2024/02/17 10:36:32;;;;;;;7.32;4.10;;;;;;;17.41;62.92;97997.41;2101130;28;20229;-72
2024/02/17 10:37:38;;;;;;;8.02;4.18;;;;;;;17.12;65.06;98001.50;2101977;28;20203;-72
2024/02/17 10:38:41;;;;;;;7.78;4.50;;;;;;;16.45;66.07;98003.81;2103247;28;20625;-73
2024/02/17 10:39:45;;;;;;;6.28;4.07;;;;;;;16.56;65.73;98005.94;2104786;28;20203;-73
2024/02/17 10:40:46;;;;;;;12.40;4.30;;;;;;;16.54;65.29;97998.09;2103962;28;20217;-72
2024/02/17 10:41:48;;;;;;;10.52;4.65;;;;;;;16.76;65.63;97997.06;2103864;28;20250;-72
2024/02/17 10:42:51;;;;;;;12.20;4.43;;;;;;;16.63;65.32;98005.56;2101855;28;20248;-73
2024/02/17 10:43:53;;;;;;;8.93;4.25;;;;;;;15.82;66.09;98008.38;2102372;28;20218;-73
2024/02/17 10:44:56;;;;;;;10.57;5.28;;;;;;;15.70;68.11;98002.78;2104098;28;20733;-73
2024/02/17 10:46:03;;;;;;;14.70;4.85;;;;;;;15.90;67.82;97992.25;2101161;28;20225;-73
2024/02/17 10:47:05;;;;;;;9.95;5.70;;;;;;;15.29;68.83;98008.91;2103422;28;20219;-73
2024/02/17 10:48:09;;;;;;;9.75;5.10;;;;;;;15.31;68.68;98009.69;2104146;28;20198;-73
2024/02/17 10:49:20;;;;;;;7.22;4.05;;;;;;;15.28;67.75;98004.56;2102591;28;20206;-72
2024/02/17 10:50:22;;;;;;;12.32;4.00;;;;;;;15.30;68.06;98005.31;2103612;28;20278;-71
2024/02/17 10:51:23;;;;;;;9.15;4.72;;;;;;;15.23;65.87;98010.00;2104163;28;20191;-71
2024/02/17 10:52:30;;;;;;;9.50;3.83;;;;;;;14.83;68.99;97998.47;2096180;28;20215;-71
2024/02/17 10:53:40;;;;;;;12.45;4.20;;;;;;;14.43;69.97;97986.91;2104146;28;20199;-71
2024/02/17 10:54:47;;;;;;;7.93;4.72;;;;;;;16.84;66.28;98009.91;2104273;28;20632;-71
2024/02/17 10:55:53;;;;;;;9.80;4.85;;;;;;;17.84;62.38;98001.38;2104219;28;20202;-70
2024/02/17 10:56:56;;;;;;;9.25;4.85;;;;;;;19.50;59.94;98011.63;2103392;28;20211;-70
2024/02/17 10:58:03;;;;;;;9.40;5.03;;;;;;;18.87;60.78;98008.16;2104539;28;20252;-70
2024/02/17 10:59:07;;;;;;;7.85;4.57;;;;;;;18.36;61.79;98005.69;2104262;28;20199;-68
2024/02/17 11:00:11;;;;;;;7.53;5.03;;;;;;;18.02;59.88;98012.81;2104688;28;20203;-67
2024/02/17 11:01:14;;;;;;;6.80;4.50;;;;;;;18.49;60.10;98009.38;2104475;28;20198;-73
2024/02/17 11:02:19;;;;;;;6.10;3.47;;;;;;;19.73;56.18;98000.50;2099567;28;20219;-73
2024/02/17 11:03:31;;;;;;;7.50;3.33;;;;;;;20.18;55.38;98010.22;2104167;28;20238;-73
2024/02/17 11:04:33;;;;;;;6.97;4.05;;;;;;;20.14;52.85;98014.00;2102193;28;20326;-73
2024/02/17 11:05:46;;;;;;;9.68;3.92;;;;;;;20.03;54.00;98010.19;2104365;28;20248;-73
2024/02/17 11:06:50;;;;;;;6.78;2.90;;;;;;;18.68;56.34;97988.03;2104171;28;20219;-73
2024/02/17 11:07:52;;;;;;;11.10;4.70;;;;;;;17.70;57.03;98018.81;2104404;28;20255;-74
2024/02/17 11:08:53;;;;;;;5.43;2.55;;;;;;;16.80;59.59;98017.94;2104032;28;20259;-73
2024/02/17 11:10:05;;;;;;;5.93;2.72;;;;;;;16.90;60.67;98014.84;2103915;28;20191;-73
2024/02/17 11:11:29;;;;;;;5.45;3.00;;;;;;;16.95;61.54;98018.16;2101934;28;20589;-73
2024/02/17 11:12:34;;;;;;;4.95;3.10;;;;;;;16.57;61.29;98020.81;2102209;28;20265;-73
2024/02/17 11:13:36;;;;;;;9.13;3.72;;;;;;;16.54;62.57;98028.88;2104049;28;20258;-73
2024/02/17 11:14:41;;;;;;;8.82;3.55;;;;;;;16.03;62.01;98012.75;2104572;28;20710;-73
2024/02/17 11:16:00;;;;;;;5.20;2.65;;;;;;;16.62;60.87;98009.13;2103500;28;20206;-73
2024/02/17 11:17:02;;;;;;;5.88;3.03;;;;;;;17.23;59.79;98007.09;2103113;28;20723;-72
2024/02/17 11:18:03;;;;;;;6.63;2.90;;;;;;;17.24;60.36;98024.66;2104862;28;20231;-73
2024/02/17 11:19:09;;;;;;;11.82;4.00;;;;;;;17.06;60.46;98010.56;2100091;28;20198;-75
2024/02/17 11:20:13;;;;;;;7.22;3.15;;;;;;;16.67;61.96;98016.84;2099658;28;20200;-75
2024/02/17 11:21:24;;;;;;;6.43;3.35;;;;;;;16.15;62.64;98022.72;2104134;28;20197;-74
2024/02/17 11:22:26;;;;;;;8.48;3.60;;;;;;;16.33;62.40;98018.41;2098775;28;20230;-75
2024/02/17 11:23:32;;;;;;;7.18;3.58;;;;;;;15.78;63.78;98024.34;2104633;28;20300;-75
2024/02/17 11:24:37;;;;;;;9.30;2.83;;;;;;;15.57;64.40;98034.06;2104011;28;20214;-75
2024/02/17 11:25:41;;;;;;;6.35;2.80;;;;;;;15.83;63.99;98031.16;2103430;28;20641;-76
2024/02/17 11:26:46;;;;;;;10.10;3.40;;;;;;;17.28;59.84;98017.41;2098432;28;20264;-74
2024/02/17 11:27:50;;;;;;;8.65;3.78;;;;;;;18.84;57.23;98026.84;2101731;28;20211;-73
2024/02/17 11:28:52;;;;;;;7.57;3.50;;;;;;;18.72;56.11;98026.59;2105719;28;20199;-75
2024/02/17 11:29:58;;;;;;;7.40;3.88;;;;;;;19.68;55.99;98023.78;2102083;28;20199;-72
2024/02/17 11:31:06;;;;;;;4.88;2.95;;;;;;;20.74;53.78;98031.47;2100400;28;20709;-73
2024/02/17 11:32:08;;;;;;;6.13;3.42;;;;;;;21.39;52.70;98027.22;2100285;28;20250;-72
2024/02/17 11:33:15;;;;;;;6.45;2.60;;;;;;;21.81;51.61;98011.16;2105495;28;20243;-72
2024/02/17 11:34:18;;;;;;;9.95;2.80;;;;;;;22.04;50.56;98025.50;2112597;28;20202;-72
2024/02/17 11:35:30;;;;;;;5.97;2.50;;;;;;;21.34;48.80;97953.19;2103998;28;20419;-74
2024/02/17 11:36:36;;;;;;;6.80;2.85;;;;;;;21.29;50.31;97963.28;2095369;28;20277;-74
2024/02/17 11:37:41;;;;;;;4.82;2.05;;;;;;;21.72;49.53;97982.56;2104235;28;20229;-73
2024/02/17 11:38:43;;;;;;;7.20;2.95;;;;;;;20.46;50.25;98033.19;2104270;28;20205;-72
2024/02/17 11:39:46;;;;;;;5.55;2.78;;;;;;;19.97;51.82;98023.84;2104253;28;20205;-73
2024/02/17 11:40:56;;;;;;;6.28;2.60;;;;;;;20.20;53.34;98038.34;2103571;28;20207;-73
2024/02/17 11:41:58;;;;;;;4.90;3.13;;;;;;;19.97;52.59;98031.81;2096379;28;20218;-73
2024/02/17 11:43:01;;;;;;;8.63;3.05;;;;;;;20.36;52.92;98022.28;2105082;28;20199;-72
2024/02/17 11:44:03;;;;;;;9.45;3.03;;;;;;;20.98;50.93;98026.38;2106274;28;20643;-72
2024/02/17 11:45:05;;;;;;;5.38;3.22;;;;;;;21.62;48.83;97999.16;2102676;28;20271;-73
2024/02/17 11:46:07;;;;;;;5.00;2.80;;;;;;;22.23;48.87;98026.91;2105294;28;20191;-73
2024/02/17 11:47:08;;;;;;;4.10;1.92;;;;;;;21.68;48.61;98021.78;2112119;28;20229;-73
2024/02/17 11:48:10;;;;;;;5.63;2.25;;;;;;;21.42;48.47;98015.53;2112855;28;20848;-73
2024/02/17 11:49:22;;;;;;;6.90;2.45;;;;;;;-145.49;100.00;55703.94;2103544;28;20195;-73
2024/02/17 11:50:24;;;;;;;4.32;2.30;;;;;;;-145.49;100.00;55703.94;2102909;28;20302;-72
2024/02/17 11:51:26;;;;;;;5.13;1.92;;;;;;;-145.49;100.00;55703.94;2104485;28;20255;-73
2024/02/17 11:52:33;;;;;;;6.78;2.10;;;;;;;-145.49;100.00;55703.94;2103567;28;20241;-72
2024/02/17 11:53:34;;;;;;;7.45;2.72;;;;;;;-145.49;100.00;55703.94;2103053;28;20191;-72
2024/02/17 11:54:37;;;;;;;6.25;2.20;;;;;;;-145.49;100.00;55703.94;2102403;28;20192;-72
2024/02/17 11:55:39;;;;;;;6.35;2.20;;;;;;;-145.49;100.00;55703.94;2102069;28;20206;-73
2024/02/17 11:56:43;;;;;;;5.15;2.28;;;;;;;-145.49;100.00;55703.94;2100499;28;20286;-73
2024/02/17 11:57:45;;;;;;;7.70;2.17;;;;;;;-145.49;100.00;55703.94;2103503;28;20203;-72
2024/02/17 11:58:47;;;;;;;3.53;1.98;;;;;;;-145.49;100.00;55703.94;2106293;28;20278;-67
2024/02/17 11:59:49;;;;;;;3.85;1.60;;;;;;;-145.49;100.00;55703.94;2107072;28;20348;-68
2024/02/17 12:00:55;;;;;;;3.63;1.67;;;;;;;-145.49;100.00;55703.94;2104889;28;20198;-67
2024/02/17 12:01:59;;;;;;;5.00;2.35;;;;;;;-145.49;100.00;55703.94;2100552;28;20215;-67
2024/02/17 12:03:01;;;;;;;5.93;2.20;;;;;;;-145.49;100.00;55703.94;2095497;28;20721;-67
2024/02/17 12:04:04;;;;;;;6.40;1.83;;;;;;;-145.49;100.00;55703.94;2094745;28;20254;-67
2024/02/17 12:05:07;;;;;;;5.60;2.78;;;;;;;-145.49;100.00;55703.94;2095364;28;20207;-72
2024/02/17 12:06:09;;;;;;;9.07;2.53;;;;;;;-145.49;100.00;55703.94;2097754;28;20933;-72
2024/02/17 12:07:11;;;;;;;10.02;2.90;;;;;;;-145.49;100.00;55703.94;2101065;28;20227;-72
2024/02/17 12:08:13;;;;;;;3.85;2.60;;;;;;;-145.49;100.00;55703.94;2097103;28;20555;-75
2024/02/17 12:09:16;;;;;;;7.75;3.25;;;;;;;-145.49;100.00;55703.94;2093980;28;20207;-74
2024/02/17 12:10:17;;;;;;;8.00;2.95;;;;;;;-145.49;100.00;55703.94;2095062;28;20192;-75
2024/02/17 12:11:19;;;;;;;21.05;12.00;;;;;;;-145.49;100.00;55703.94;2095079;28;20204;-74
2024/02/17 12:12:21;;;;;;;37.53;23.10;;;;;;;-145.49;100.00;55703.94;2094810;28;20308;-75
2024/02/17 12:13:24;;;;;;;6.40;2.65;;;;;;;-145.49;100.00;55703.94;2097081;28;20211;-75
2024/02/17 12:14:25;;;;;;;7.30;2.38;;;;;;;-145.49;100.00;55703.94;2094881;28;20195;-74
2024/02/17 12:15:27;;;;;;;6.38;2.40;;;;;;;-145.49;100.00;55703.94;2095005;28;20203;-75
2024/02/17 12:16:29;;;;;;;8.45;2.22;;;;;;;-145.49;100.00;55703.94;2093202;28;20563;-73
2024/02/17 12:17:30;;;;;;;9.13;2.85;;;;;;;-145.49;100.00;55703.94;2092515;28;20195;-75
2024/02/17 12:18:32;;;;;;;6.85;2.58;;;;;;;-145.49;100.00;55703.94;2095185;28;20203;-74
2024/02/17 12:19:34;;;;;;;7.00;2.13;;;;;;;-145.49;100.00;55703.94;2094686;28;20196;-74
2024/02/17 12:20:35;;;;;;;6.90;2.85;;;;;;;-145.49;100.00;55703.94;2094125;28;20206;-75
2024/02/17 12:21:38;;;;;;;8.52;2.70;;;;;;;-145.49;100.00;55703.94;2091317;28;20199;-74
2024/02/17 12:22:48;;;;;;;5.25;2.15;;;;;;;-145.49;100.00;55703.94;2094932;28;20659;-74
2024/02/17 12:23:51;;;;;;;6.22;2.78;;;;;;;-145.49;100.00;55703.94;2093103;28;20222;-75
2024/02/17 12:24:52;;;;;;;6.15;3.15;;;;;;;-145.49;100.00;55703.94;2094452;28;20212;-75
2024/02/17 12:25:55;;;;;;;10.63;2.65;;;;;;;-145.49;100.00;55703.94;2095819;28;20569;-74
2024/02/17 12:26:57;;;;;;;5.97;3.13;;;;;;;-145.49;100.00;55703.94;2095203;28;20686;-75
2024/02/17 12:28:00;;;;;;;11.27;3.05;;;;;;;-145.49;100.00;55703.94;2096019;28;20191;-75
2024/02/17 12:29:02;;;;;;;5.57;2.60;;;;;;;-145.49;100.00;55703.94;2094296;28;20237;-74
2024/02/17 12:30:06;;;;;;;5.22;2.42;;;;;;;-145.49;100.00;55703.94;2095350;28;20230;-74
2024/02/17 12:31:09;;;;;;;9.23;3.35;;;;;;;-145.49;100.00;55703.94;2085400;28;20267;-74
2024/02/17 12:32:19;;;;;;;9.48;3.30;;;;;;;-145.49;100.00;55703.94;2093627;28;20292;-75
2024/02/17 12:33:21;;;;;;;7.70;3.35;;;;;;;-145.49;100.00;55703.94;2093872;28;20223;-74
2024/02/17 12:34:29;;;;;;;7.22;2.90;;;;;;;-145.49;100.00;55703.94;2093694;28;20203;-75
2024/02/17 12:35:31;;;;;;;15.02;2.63;;;;;;;-145.49;100.00;55703.94;2094363;28;20480;-75
2024/02/17 12:36:33;;;;;;;8.20;2.20;;;;;;;-145.49;100.00;55703.94;2093922;28;20231;-74
2024/02/17 12:37:35;;;;;;;5.03;2.20;;;;;;;-145.49;100.00;55703.94;2095510;28;20212;-74
2024/02/17 12:38:37;;;;;;;7.85;2.20;;;;;;;-145.49;100.00;55703.94;2095872;28;20191;-75
2024/02/17 12:39:38;;;;;;;6.35;2.50;;;;;;;-145.49;100.00;55703.94;2095054;28;20248;-74
2024/02/17 12:40:42;;;;;;;5.88;2.88;;;;;;;-145.49;100.00;55703.94;2093920;28;20187;-74
2024/02/17 12:41:44;;;;;;;4.85;2.00;;;;;;;-145.49;100.00;55703.94;2092896;28;20223;-74
2024/02/17 12:42:50;;;;;;;7.57;2.60;;;;;;;-145.49;100.00;55703.94;2094619;28;20486;-74
2024/02/17 12:43:52;;;;;;;4.50;2.00;;;;;;;-145.49;100.00;55703.94;2102468;28;20199;-74
2024/02/17 12:44:56;;;;;;;4.32;2.00;;;;;;;-145.49;100.00;55703.94;2100716;28;20222;-75
2024/02/17 12:45:58;;;;;;;5.90;2.10;;;;;;;-145.49;100.00;55703.94;2094052;28;20715;-74
2024/02/17 12:47:00;;;;;;;5.75;1.58;;;;;;;-145.49;100.00;55703.94;2094589;28;20215;-73
2024/02/17 12:48:05;;;;;;;7.70;1.52;;;;;;;-145.49;100.00;55703.94;2093633;28;20188;-74
2024/02/17 12:49:07;;;;;;;5.43;1.65;;;;;;;-145.49;100.00;55703.94;2095039;28;20192;-73
2024/02/17 12:50:16;;;;;;;6.97;1.75;;;;;;;-145.49;100.00;55703.94;2095277;28;20534;-74
2024/02/17 12:51:21;;;;;;;3.28;1.27;;;;;;;-145.49;100.00;55703.94;2095660;28;20673;-74
2024/02/17 12:52:27;;;;;;;3.08;1.30;;;;;;;-145.49;100.00;55703.94;2092507;28;20243;-73
2024/02/17 12:53:33;;;;;;;3.92;1.83;;;;;;;-145.49;100.00;55703.94;2094650;28;20283;-73
2024/02/17 12:54:34;;;;;;;4.30;1.30;;;;;;;-145.49;100.00;55703.94;2093227;28;20196;-74
2024/02/17 12:55:37;;;;;;;3.15;1.35;;;;;;;-145.49;100.00;55703.94;2092978;28;20242;-72
2024/02/17 12:56:39;;;;;;;2.60;1.20;;;;;;;-145.49;100.00;55703.94;2097989;28;20199;-72